sensor_id;sensor_type;location;lat;lon;timestamp;temperature;humidity
21823;DHT22;11074;48.596;9.238;2023-04-25T00:01:20;9.60;99.90
21823;DHT22;11074;48.596;9.238;2023-04-25T00:03:47;9.70;99.90
21823;DHT22;11074;48.596;9.238;2023-04-25T00:06:13;9.70;99.90
21823;DHT22;11074;48.596;9.238;2023-04-25T00:08:40;9.70;99.90
21823;DHT22;11074;48.596;9.238;2023-04-25T00:11:05;9.60;99.90
21823;DHT22;11074;48.596;9.238;2023-04-25T00:13:32;9.50;99.90
21823;DHT22;11074;48.596;9.238;2023-04-25T00:15:58;9.50;99.90
21823;DHT22;11074;48.596;9.238;2023-04-25T00:18:26;9.50;99.90
21823;DHT22;11074;48.596;9.238;2023-04-25T00:20:54;9.50;99.90
21823;DHT22;11074;48.596;9.238;2023-04-25T00:23:21;9.60;99.90
21823;DHT22;11074;48.596;9.238;2023-04-25T00:25:48;9.60;99.90
21823;DHT22;11074;48.596;9.238;2023-04-25T00:28:14;9.70;99.90
21823;DHT22;11074;48.596;9.238;2023-04-25T00:30:41;9.70;99.90
21823;DHT22;11074;48.596;9.238;2023-04-25T00:33:08;9.70;99.90
21823;DHT22;11074;48.596;9.238;2023-04-25T00:35:34;9.60;99.90
21823;DHT22;11074;48.596;9.238;2023-04-25T00:38:01;9.60;99.90
21823;DHT22;11074;48.596;9.238;2023-04-25T00:40:27;9.60;99.90
21823;DHT22;11074;48.596;9.238;2023-04-25T00:42:54;9.60;99.90
21823;DHT22;11074;48.596;9.238;2023-04-25T00:45:20;9.60;99.90
21823;DHT22;11074;48.596;9.238;2023-04-25T00:47:46;9.60;99.90
21823;DHT22;11074;48.596;9.238;2023-04-25T00:50:15;9.50;99.90
21823;DHT22;11074;48.596;9.238;2023-04-25T00:52:43;9.50;99.90
21823;DHT22;11074;48.596;9.238;2023-04-25T00:55:12;9.50;99.90
21823;DHT22;11074;48.596;9.238;2023-04-25T00:57:38;9.60;99.90
21823;DHT22;11074;48.596;9.238;2023-04-25T01:00:08;9.60;99.90
21823;DHT22;11074;48.596;9.238;2023-04-25T01:02:36;9.60;99.90
21823;DHT22;11074;48.596;9.238;2023-04-25T01:05:03;9.60;99.90
21823;DHT22;11074;48.596;9.238;2023-04-25T01:07:29;9.60;99.90
21823;DHT22;11074;48.596;9.238;2023-04-25T01:09:55;9.50;99.90
21823;DHT22;11074;48.596;9.238;2023-04-25T01:12:22;9.50;99.90
21823;DHT22;11074;48.596;9.238;2023-04-25T01:14:48;9.50;99.90
21823;DHT22;11074;48.596;9.238;2023-04-25T01:17:14;9.50;99.90
21823;DHT22;11074;48.596;9.238;2023-04-25T01:19:41;9.50;99.90
21823;DHT22;11074;48.596;9.238;2023-04-25T01:22:07;9.50;99.90
21823;DHT22;11074;48.596;9.238;2023-04-25T01:24:35;9.40;99.90
21823;DHT22;11074;48.596;9.238;2023-04-25T01:27:02;9.50;99.90
21823;DHT22;11074;48.596;9.238;2023-04-25T01:29:31;9.50;99.90
21823;DHT22;11074;48.596;9.238;2023-04-25T01:31:58;9.60;99.90
21823;DHT22;11074;48.596;9.238;2023-04-25T01:34:24;9.60;99.90
21823;DHT22;11074;48.596;9.238;2023-04-25T01:36:51;9.50;99.90
21823;DHT22;11074;48.596;9.238;2023-04-25T01:39:17;9.50;99.90
21823;DHT22;11074;48.596;9.238;2023-04-25T01:41:44;9.50;99.90
21823;DHT22;11074;48.596;9.238;2023-04-25T01:44:11;9.50;99.90
21823;DHT22;11074;48.596;9.238;2023-04-25T01:46:36;9.50;99.90
21823;DHT22;11074;48.596;9.238;2023-04-25T01:49:02;9.50;99.90
21823;DHT22;11074;48.596;9.238;2023-04-25T01:51:28;9.50;99.90
21823;DHT22;11074;48.596;9.238;2023-04-25T01:53:55;9.60;99.90
21823;DHT22;11074;48.596;9.238;2023-04-25T01:56:21;9.60;99.90
21823;DHT22;11074;48.596;9.238;2023-04-25T01:58:47;9.60;99.90
21823;DHT22;11074;48.596;9.238;2023-04-25T02:01:13;9.50;99.90
21823;DHT22;11074;48.596;9.238;2023-04-25T02:03:38;9.60;99.90
21823;DHT22;11074;48.596;9.238;2023-04-25T02:06:04;9.60;99.90
21823;DHT22;11074;48.596;9.238;2023-04-25T02:08:30;9.50;99.90
21823;DHT22;11074;48.596;9.238;2023-04-25T02:10:56;9.60;99.90
21823;DHT22;11074;48.596;9.238;2023-04-25T02:13:22;9.50;99.90
21823;DHT22;11074;48.596;9.238;2023-04-25T02:15:48;9.50;99.90
21823;DHT22;11074;48.596;9.238;2023-04-25T02:18:14;9.50;99.90
21823;DHT22;11074;48.596;9.238;2023-04-25T02:20:41;9.50;99.90
21823;DHT22;11074;48.596;9.238;2023-04-25T02:23:08;9.40;99.90
21823;DHT22;11074;48.596;9.238;2023-04-25T02:25:34;9.40;99.90
21823;DHT22;11074;48.596;9.238;2023-04-25T02:27:59;9.40;99.90
21823;DHT22;11074;48.596;9.238;2023-04-25T02:30:25;9.40;99.90
21823;DHT22;11074;48.596;9.238;2023-04-25T02:32:51;9.40;99.90
21823;DHT22;11074;48.596;9.238;2023-04-25T02:35:17;9.40;99.90
21823;DHT22;11074;48.596;9.238;2023-04-25T02:37:42;9.40;99.90
21823;DHT22;11074;48.596;9.238;2023-04-25T02:40:09;9.40;99.90
21823;DHT22;11074;48.596;9.238;2023-04-25T02:42:35;9.40;99.90
21823;DHT22;11074;48.596;9.238;2023-04-25T02:45:01;9.30;99.90
21823;DHT22;11074;48.596;9.238;2023-04-25T02:47:27;9.30;99.90
21823;DHT22;11074;48.596;9.238;2023-04-25T02:49:53;9.30;99.90
21823;DHT22;11074;48.596;9.238;2023-04-25T02:52:18;9.20;99.90
21823;DHT22;11074;48.596;9.238;2023-04-25T02:54:44;9.30;99.90
21823;DHT22;11074;48.596;9.238;2023-04-25T02:57:10;9.30;99.90
21823;DHT22;11074;48.596;9.238;2023-04-25T02:59:35;9.20;99.90
21823;DHT22;11074;48.596;9.238;2023-04-25T03:02:01;9.30;99.90
21823;DHT22;11074;48.596;9.238;2023-04-25T03:04:27;9.30;99.90
21823;DHT22;11074;48.596;9.238;2023-04-25T03:06:53;9.30;99.90
21823;DHT22;11074;48.596;9.238;2023-04-25T03:09:19;9.30;99.90
21823;DHT22;11074;48.596;9.238;2023-04-25T03:11:45;9.20;99.90
21823;DHT22;11074;48.596;9.238;2023-04-25T03:14:12;9.20;99.90
21823;DHT22;11074;48.596;9.238;2023-04-25T03:16:38;9.20;99.90
21823;DHT22;11074;48.596;9.238;2023-04-25T03:19:04;9.20;99.90
21823;DHT22;11074;48.596;9.238;2023-04-25T03:21:31;9.20;99.90
21823;DHT22;11074;48.596;9.238;2023-04-25T03:24:00;9.20;99.90
21823;DHT22;11074;48.596;9.238;2023-04-25T03:26:28;9.20;99.90
21823;DHT22;11074;48.596;9.238;2023-04-25T03:28:54;9.30;99.90
21823;DHT22;11074;48.596;9.238;2023-04-25T03:31:20;9.20;99.90
21823;DHT22;11074;48.596;9.238;2023-04-25T03:33:45;9.20;99.90
21823;DHT22;11074;48.596;9.238;2023-04-25T03:36:11;9.20;99.90
21823;DHT22;11074;48.596;9.238;2023-04-25T03:38:37;9.10;99.90
21823;DHT22;11074;48.596;9.238;2023-04-25T03:41:03;9.10;99.90
21823;DHT22;11074;48.596;9.238;2023-04-25T03:43:28;9.10;99.90
21823;DHT22;11074;48.596;9.238;2023-04-25T03:45:54;9.10;99.90
21823;DHT22;11074;48.596;9.238;2023-04-25T03:48:20;9.20;99.90
21823;DHT22;11074;48.596;9.238;2023-04-25T03:50:50;9.20;99.90
21823;DHT22;11074;48.596;9.238;2023-04-25T03:53:15;9.20;99.90
21823;DHT22;11074;48.596;9.238;2023-04-25T03:55:41;9.20;99.90
21823;DHT22;11074;48.596;9.238;2023-04-25T03:58:07;9.20;99.90
21823;DHT22;11074;48.596;9.238;2023-04-25T04:00:34;9.20;99.90
21823;DHT22;11074;48.596;9.238;2023-04-25T04:03:03;9.10;99.90
21823;DHT22;11074;48.596;9.238;2023-04-25T04:05:28;9.10;99.90
21823;DHT22;11074;48.596;9.238;2023-04-25T04:07:54;9.10;99.90
21823;DHT22;11074;48.596;9.238;2023-04-25T04:10:21;9.00;99.90
21823;DHT22;11074;48.596;9.238;2023-04-25T04:12:46;9.00;99.90
21823;DHT22;11074;48.596;9.238;2023-04-25T04:15:12;8.90;99.90
21823;DHT22;11074;48.596;9.238;2023-04-25T04:17:41;8.90;99.90
21823;DHT22;11074;48.596;9.238;2023-04-25T04:20:07;9.00;99.90
21823;DHT22;11074;48.596;9.238;2023-04-25T04:22:33;8.90;99.90
21823;DHT22;11074;48.596;9.238;2023-04-25T04:25:00;8.90;99.90
21823;DHT22;11074;48.596;9.238;2023-04-25T04:27:26;8.90;99.90
21823;DHT22;11074;48.596;9.238;2023-04-25T04:29:55;8.80;99.90
21823;DHT22;11074;48.596;9.238;2023-04-25T04:32:21;8.80;99.90
21823;DHT22;11074;48.596;9.238;2023-04-25T04:34:49;8.80;99.90
21823;DHT22;11074;48.596;9.238;2023-04-25T04:37:14;8.90;99.90
21823;DHT22;11074;48.596;9.238;2023-04-25T04:39:40;8.90;99.90
21823;DHT22;11074;48.596;9.238;2023-04-25T04:42:06;8.80;99.90
21823;DHT22;11074;48.596;9.238;2023-04-25T04:44:32;8.80;99.90
21823;DHT22;11074;48.596;9.238;2023-04-25T04:46:59;8.80;99.90
21823;DHT22;11074;48.596;9.238;2023-04-25T04:49:24;8.90;99.90
21823;DHT22;11074;48.596;9.238;2023-04-25T04:51:50;8.90;99.90
21823;DHT22;11074;48.596;9.238;2023-04-25T04:54:16;8.90;99.90
21823;DHT22;11074;48.596;9.238;2023-04-25T04:56:42;9.00;99.90
21823;DHT22;11074;48.596;9.238;2023-04-25T04:59:08;8.90;99.90
21823;DHT22;11074;48.596;9.238;2023-04-25T05:01:34;8.80;99.90
21823;DHT22;11074;48.596;9.238;2023-04-25T05:04:03;8.80;99.90
21823;DHT22;11074;48.596;9.238;2023-04-25T05:06:29;8.80;99.90
21823;DHT22;11074;48.596;9.238;2023-04-25T05:08:56;8.80;99.90
21823;DHT22;11074;48.596;9.238;2023-04-25T05:11:24;8.70;99.90
21823;DHT22;11074;48.596;9.238;2023-04-25T05:13:52;8.70;99.90
21823;DHT22;11074;48.596;9.238;2023-04-25T05:16:18;8.70;99.90
21823;DHT22;11074;48.596;9.238;2023-04-25T05:18:45;8.70;99.90
21823;DHT22;11074;48.596;9.238;2023-04-25T05:21:12;8.80;99.90
21823;DHT22;11074;48.596;9.238;2023-04-25T05:23:38;9.00;99.90
21823;DHT22;11074;48.596;9.238;2023-04-25T05:26:03;9.00;99.90
21823;DHT22;11074;48.596;9.238;2023-04-25T05:28:29;9.10;99.90
21823;DHT22;11074;48.596;9.238;2023-04-25T05:30:55;9.10;99.90
21823;DHT22;11074;48.596;9.238;2023-04-25T05:33:21;9.10;99.90
21823;DHT22;11074;48.596;9.238;2023-04-25T05:35:47;9.10;99.90
21823;DHT22;11074;48.596;9.238;2023-04-25T05:38:12;9.20;99.90
21823;DHT22;11074;48.596;9.238;2023-04-25T05:40:38;9.30;99.90
21823;DHT22;11074;48.596;9.238;2023-04-25T05:43:04;9.30;99.90
21823;DHT22;11074;48.596;9.238;2023-04-25T05:45:29;9.40;99.90
21823;DHT22;11074;48.596;9.238;2023-04-25T05:47:55;9.40;99.90
21823;DHT22;11074;48.596;9.238;2023-04-25T05:50:21;9.50;99.90
21823;DHT22;11074;48.596;9.238;2023-04-25T05:52:46;9.70;99.90
21823;DHT22;11074;48.596;9.238;2023-04-25T05:55:12;9.80;99.90
21823;DHT22;11074;48.596;9.238;2023-04-25T05:57:38;9.80;99.90
21823;DHT22;11074;48.596;9.238;2023-04-25T06:00:08;9.80;99.90
21823;DHT22;11074;48.596;9.238;2023-04-25T06:02:35;9.90;99.90
21823;DHT22;11074;48.596;9.238;2023-04-25T06:05:00;9.90;99.90
21823;DHT22;11074;48.596;9.238;2023-04-25T06:07:28;10.00;99.90
21823;DHT22;11074;48.596;9.238;2023-04-25T06:09:55;10.10;99.90
21823;DHT22;11074;48.596;9.238;2023-04-25T06:12:21;10.10;99.90
21823;DHT22;11074;48.596;9.238;2023-04-25T06:14:47;10.10;99.90
21823;DHT22;11074;48.596;9.238;2023-04-25T06:17:12;10.10;99.90
21823;DHT22;11074;48.596;9.238;2023-04-25T06:19:38;10.30;99.90
21823;DHT22;11074;48.596;9.238;2023-04-25T06:22:04;10.40;99.90
21823;DHT22;11074;48.596;9.238;2023-04-25T06:24:30;10.40;99.90
21823;DHT22;11074;48.596;9.238;2023-04-25T06:26:55;10.60;99.90
21823;DHT22;11074;48.596;9.238;2023-04-25T06:29:21;10.60;99.90
21823;DHT22;11074;48.596;9.238;2023-04-25T06:31:47;10.70;99.90
21823;DHT22;11074;48.596;9.238;2023-04-25T06:34:12;10.80;99.90
21823;DHT22;11074;48.596;9.238;2023-04-25T06:36:38;10.80;99.90
21823;DHT22;11074;48.596;9.238;2023-04-25T06:39:04;10.70;99.90
21823;DHT22;11074;48.596;9.238;2023-04-25T06:41:30;10.70;99.90
21823;DHT22;11074;48.596;9.238;2023-04-25T06:43:55;10.70;99.90
21823;DHT22;11074;48.596;9.238;2023-04-25T06:46:21;10.60;99.90
21823;DHT22;11074;48.596;9.238;2023-04-25T06:48:47;10.60;99.90
21823;DHT22;11074;48.596;9.238;2023-04-25T06:51:12;10.50;99.90
21823;DHT22;11074;48.596;9.238;2023-04-25T06:53:40;10.50;99.90
21823;DHT22;11074;48.596;9.238;2023-04-25T06:56:06;10.50;99.90
21823;DHT22;11074;48.596;9.238;2023-04-25T06:58:32;10.50;99.90
21823;DHT22;11074;48.596;9.238;2023-04-25T07:00:57;10.40;99.90
21823;DHT22;11074;48.596;9.238;2023-04-25T07:03:23;10.40;99.90
21823;DHT22;11074;48.596;9.238;2023-04-25T07:05:49;10.40;99.90
21823;DHT22;11074;48.596;9.238;2023-04-25T07:08:16;10.30;99.90
21823;DHT22;11074;48.596;9.238;2023-04-25T07:10:42;10.30;99.90
21823;DHT22;11074;48.596;9.238;2023-04-25T07:13:08;10.30;99.90
21823;DHT22;11074;48.596;9.238;2023-04-25T07:15:33;10.30;99.90
21823;DHT22;11074;48.596;9.238;2023-04-25T07:17:59;10.30;99.90
21823;DHT22;11074;48.596;9.238;2023-04-25T07:20:25;10.20;99.90
21823;DHT22;11074;48.596;9.238;2023-04-25T07:22:52;10.20;99.90
21823;DHT22;11074;48.596;9.238;2023-04-25T07:25:18;10.20;99.90
21823;DHT22;11074;48.596;9.238;2023-04-25T07:27:45;10.10;99.90
21823;DHT22;11074;48.596;9.238;2023-04-25T07:30:11;10.00;99.90
21823;DHT22;11074;48.596;9.238;2023-04-25T07:32:38;10.00;99.90
21823;DHT22;11074;48.596;9.238;2023-04-25T07:35:04;9.90;99.90
21823;DHT22;11074;48.596;9.238;2023-04-25T07:37:30;9.90;99.90
21823;DHT22;11074;48.596;9.238;2023-04-25T07:39:55;9.90;99.90
21823;DHT22;11074;48.596;9.238;2023-04-25T07:42:21;9.80;99.90
21823;DHT22;11074;48.596;9.238;2023-04-25T07:44:47;9.80;99.90
21823;DHT22;11074;48.596;9.238;2023-04-25T07:47:12;9.80;99.90
21823;DHT22;11074;48.596;9.238;2023-04-25T07:49:39;9.70;99.90
21823;DHT22;11074;48.596;9.238;2023-04-25T07:52:05;9.70;99.90
21823;DHT22;11074;48.596;9.238;2023-04-25T07:54:31;9.60;99.90
21823;DHT22;11074;48.596;9.238;2023-04-25T07:56:58;9.60;99.90
21823;DHT22;11074;48.596;9.238;2023-04-25T07:59:24;9.50;99.90
21823;DHT22;11074;48.596;9.238;2023-04-25T08:01:50;9.50;99.90
21823;DHT22;11074;48.596;9.238;2023-04-25T08:04:17;9.50;99.90
21823;DHT22;11074;48.596;9.238;2023-04-25T08:06:43;9.40;99.90
21823;DHT22;11074;48.596;9.238;2023-04-25T08:09:09;9.40;99.90
21823;DHT22;11074;48.596;9.238;2023-04-25T08:11:35;9.50;99.90
21823;DHT22;11074;48.596;9.238;2023-04-25T08:14:01;9.50;99.90
21823;DHT22;11074;48.596;9.238;2023-04-25T08:16:27;9.50;99.90
21823;DHT22;11074;48.596;9.238;2023-04-25T08:18:54;9.40;99.90
21823;DHT22;11074;48.596;9.238;2023-04-25T08:21:20;9.40;99.90
21823;DHT22;11074;48.596;9.238;2023-04-25T08:23:46;9.40;99.90
21823;DHT22;11074;48.596;9.238;2023-04-25T08:26:12;9.40;99.90
21823;DHT22;11074;48.596;9.238;2023-04-25T08:28:38;9.30;99.90
21823;DHT22;11074;48.596;9.238;2023-04-25T08:31:03;9.30;99.90
21823;DHT22;11074;48.596;9.238;2023-04-25T08:33:29;9.40;99.90
21823;DHT22;11074;48.596;9.238;2023-04-25T08:35:55;9.40;99.90
21823;DHT22;11074;48.596;9.238;2023-04-25T08:38:21;9.40;99.90
21823;DHT22;11074;48.596;9.238;2023-04-25T08:40:49;9.50;99.90
21823;DHT22;11074;48.596;9.238;2023-04-25T08:43:19;9.50;99.90
21823;DHT22;11074;48.596;9.238;2023-04-25T08:45:45;9.60;99.90
21823;DHT22;11074;48.596;9.238;2023-04-25T08:48:13;9.60;99.90
21823;DHT22;11074;48.596;9.238;2023-04-25T08:50:55;9.60;99.90
21823;DHT22;11074;48.596;9.238;2023-04-25T08:53:30;9.60;99.90
21823;DHT22;11074;48.596;9.238;2023-04-25T08:55:59;9.70;99.90
21823;DHT22;11074;48.596;9.238;2023-04-25T08:58:29;9.80;99.90
21823;DHT22;11074;48.596;9.238;2023-04-25T09:00:55;9.80;99.90
21823;DHT22;11074;48.596;9.238;2023-04-25T09:03:21;9.80;99.90
21823;DHT22;11074;48.596;9.238;2023-04-25T09:05:47;9.80;99.90
21823;DHT22;11074;48.596;9.238;2023-04-25T09:08:12;9.80;99.90
21823;DHT22;11074;48.596;9.238;2023-04-25T09:10:38;9.80;99.90
21823;DHT22;11074;48.596;9.238;2023-04-25T09:13:13;9.80;99.90
21823;DHT22;11074;48.596;9.238;2023-04-25T09:15:48;9.90;99.90
21823;DHT22;11074;48.596;9.238;2023-04-25T09:18:23;9.90;99.90
21823;DHT22;11074;48.596;9.238;2023-04-25T09:21:09;9.90;99.90
21823;DHT22;11074;48.596;9.238;2023-04-25T09:23:44;9.80;99.90
21823;DHT22;11074;48.596;9.238;2023-04-25T09:26:16;9.80;99.90
21823;DHT22;11074;48.596;9.238;2023-04-25T09:28:44;9.80;99.90
21823;DHT22;11074;48.596;9.238;2023-04-25T09:31:11;9.80;99.90
21823;DHT22;11074;48.596;9.238;2023-04-25T09:33:37;9.70;99.90
21823;DHT22;11074;48.596;9.238;2023-04-25T09:36:08;9.70;99.90
21823;DHT22;11074;48.596;9.238;2023-04-25T09:38:44;9.70;99.90
21823;DHT22;11074;48.596;9.238;2023-04-25T09:41:11;9.60;99.90
21823;DHT22;11074;48.596;9.238;2023-04-25T09:43:38;9.60;99.90
21823;DHT22;11074;48.596;9.238;2023-04-25T09:46:09;9.60;99.90
21823;DHT22;11074;48.596;9.238;2023-04-25T09:48:36;9.70;99.90
21823;DHT22;11074;48.596;9.238;2023-04-25T09:51:10;9.70;99.90
21823;DHT22;11074;48.596;9.238;2023-04-25T09:53:43;9.70;99.90
21823;DHT22;11074;48.596;9.238;2023-04-25T09:56:12;9.70;99.90
21823;DHT22;11074;48.596;9.238;2023-04-25T09:58:39;9.70;99.90
21823;DHT22;11074;48.596;9.238;2023-04-25T10:01:07;9.80;99.90
21823;DHT22;11074;48.596;9.238;2023-04-25T10:03:36;9.90;99.90
21823;DHT22;11074;48.596;9.238;2023-04-25T10:06:12;9.90;99.90
21823;DHT22;11074;48.596;9.238;2023-04-25T10:08:43;9.90;99.90
21823;DHT22;11074;48.596;9.238;2023-04-25T10:11:09;9.90;99.90
21823;DHT22;11074;48.596;9.238;2023-04-25T10:13:36;9.70;99.90
21823;DHT22;11074;48.596;9.238;2023-04-25T10:16:04;9.70;99.90
21823;DHT22;11074;48.596;9.238;2023-04-25T10:18:31;9.60;99.90
21823;DHT22;11074;48.596;9.238;2023-04-25T10:21:04;9.60;99.90
21823;DHT22;11074;48.596;9.238;2023-04-25T10:23:32;9.50;99.90
21823;DHT22;11074;48.596;9.238;2023-04-25T10:26:02;9.40;99.90
21823;DHT22;11074;48.596;9.238;2023-04-25T10:28:27;9.30;99.90
21823;DHT22;11074;48.596;9.238;2023-04-25T10:31:06;9.20;99.90
21823;DHT22;11074;48.596;9.238;2023-04-25T10:33:37;9.30;99.90
21823;DHT22;11074;48.596;9.238;2023-04-25T10:36:14;9.30;99.90
21823;DHT22;11074;48.596;9.238;2023-04-25T10:38:43;9.40;99.90
21823;DHT22;11074;48.596;9.238;2023-04-25T10:41:11;9.40;99.90
21823;DHT22;11074;48.596;9.238;2023-04-25T10:43:42;9.40;99.90
21823;DHT22;11074;48.596;9.238;2023-04-25T10:46:26;9.50;99.90
21823;DHT22;11074;48.596;9.238;2023-04-25T10:48:58;9.50;99.90
21823;DHT22;11074;48.596;9.238;2023-04-25T10:51:27;9.60;99.90
21823;DHT22;11074;48.596;9.238;2023-04-25T10:56:29;9.70;99.90
21823;DHT22;11074;48.596;9.238;2023-04-25T10:59:18;9.70;99.90
21823;DHT22;11074;48.596;9.238;2023-04-25T11:01:46;9.70;99.90
21823;DHT22;11074;48.596;9.238;2023-04-25T11:04:33;9.70;99.90
21823;DHT22;11074;48.596;9.238;2023-04-25T11:07:10;9.60;99.90
21823;DHT22;11074;48.596;9.238;2023-04-25T11:09:51;9.60;99.90
21823;DHT22;11074;48.596;9.238;2023-04-25T11:12:17;9.60;99.90
21823;DHT22;11074;48.596;9.238;2023-04-25T11:14:43;9.60;99.90
21823;DHT22;11074;48.596;9.238;2023-04-25T11:17:09;9.60;99.90
21823;DHT22;11074;48.596;9.238;2023-04-25T11:19:36;9.60;99.90
21823;DHT22;11074;48.596;9.238;2023-04-25T11:22:03;9.60;99.90
21823;DHT22;11074;48.596;9.238;2023-04-25T11:24:33;9.60;99.90
21823;DHT22;11074;48.596;9.238;2023-04-25T11:27:01;9.60;99.90
21823;DHT22;11074;48.596;9.238;2023-04-25T11:29:29;9.60;99.90
21823;DHT22;11074;48.596;9.238;2023-04-25T11:31:57;9.70;99.90
21823;DHT22;11074;48.596;9.238;2023-04-25T11:34:27;9.80;99.90
21823;DHT22;11074;48.596;9.238;2023-04-25T11:36:55;9.80;99.90
21823;DHT22;11074;48.596;9.238;2023-04-25T11:39:23;9.80;99.90
21823;DHT22;11074;48.596;9.238;2023-04-25T11:41:50;9.80;99.90
21823;DHT22;11074;48.596;9.238;2023-04-25T11:44:16;9.80;99.90
21823;DHT22;11074;48.596;9.238;2023-04-25T11:46:44;9.80;99.90
21823;DHT22;11074;48.596;9.238;2023-04-25T11:49:10;9.90;99.90
21823;DHT22;11074;48.596;9.238;2023-04-25T11:51:43;9.90;99.90
21823;DHT22;11074;48.596;9.238;2023-04-25T11:54:11;9.90;99.90
21823;DHT22;11074;48.596;9.238;2023-04-25T11:56:40;9.90;99.90
21823;DHT22;11074;48.596;9.238;2023-04-25T11:59:07;9.90;99.90
21823;DHT22;11074;48.596;9.238;2023-04-25T12:01:36;9.90;99.90
21823;DHT22;11074;48.596;9.238;2023-04-25T12:06:40;9.80;99.90
21823;DHT22;11074;48.596;9.238;2023-04-25T12:09:09;9.70;99.90
21823;DHT22;11074;48.596;9.238;2023-04-25T12:11:44;9.70;99.90
21823;DHT22;11074;48.596;9.238;2023-04-25T12:14:11;9.60;99.90
21823;DHT22;11074;48.596;9.238;2023-04-25T12:16:41;9.40;99.90
21823;DHT22;11074;48.596;9.238;2023-04-25T12:19:08;9.30;99.90
21823;DHT22;11074;48.596;9.238;2023-04-25T12:21:34;9.20;99.90
21823;DHT22;11074;48.596;9.238;2023-04-25T12:24:14;9.20;99.90
21823;DHT22;11074;48.596;9.238;2023-04-25T12:27:04;9.40;99.90
21823;DHT22;11074;48.596;9.238;2023-04-25T12:29:33;9.60;99.90
21823;DHT22;11074;48.596;9.238;2023-04-25T12:32:00;9.90;99.90
21823;DHT22;11074;48.596;9.238;2023-04-25T12:34:27;10.20;99.90
21823;DHT22;11074;48.596;9.238;2023-04-25T12:36:53;10.50;99.90
21823;DHT22;11074;48.596;9.238;2023-04-25T12:39:21;10.80;99.90
21823;DHT22;11074;48.596;9.238;2023-04-25T12:41:49;10.90;99.90
21823;DHT22;11074;48.596;9.238;2023-04-25T12:44:15;10.80;99.90
21823;DHT22;11074;48.596;9.238;2023-04-25T12:46:42;10.80;99.90
21823;DHT22;11074;48.596;9.238;2023-04-25T12:49:08;10.70;99.90
21823;DHT22;11074;48.596;9.238;2023-04-25T12:51:35;10.60;99.90
21823;DHT22;11074;48.596;9.238;2023-04-25T12:54:03;10.70;99.90
21823;DHT22;11074;48.596;9.238;2023-04-25T12:56:30;10.70;99.90
21823;DHT22;11074;48.596;9.238;2023-04-25T12:58:56;10.60;99.90
21823;DHT22;11074;48.596;9.238;2023-04-25T13:01:23;10.60;99.90
21823;DHT22;11074;48.596;9.238;2023-04-25T13:03:49;10.50;99.90
21823;DHT22;11074;48.596;9.238;2023-04-25T13:06:15;10.50;99.90
21823;DHT22;11074;48.596;9.238;2023-04-25T13:08:42;10.50;99.90
21823;DHT22;11074;48.596;9.238;2023-04-25T13:11:08;10.60;99.90
21823;DHT22;11074;48.596;9.238;2023-04-25T13:13:34;10.70;99.90
21823;DHT22;11074;48.596;9.238;2023-04-25T13:16:04;10.90;99.90
21823;DHT22;11074;48.596;9.238;2023-04-25T13:18:30;11.00;99.90
21823;DHT22;11074;48.596;9.238;2023-04-25T13:20:57;11.10;99.90
21823;DHT22;11074;48.596;9.238;2023-04-25T13:23:25;11.20;99.90
21823;DHT22;11074;48.596;9.238;2023-04-25T13:25:55;11.40;99.90
21823;DHT22;11074;48.596;9.238;2023-04-25T13:28:23;11.50;99.90
21823;DHT22;11074;48.596;9.238;2023-04-25T13:30:50;11.60;99.90
21823;DHT22;11074;48.596;9.238;2023-04-25T13:33:17;11.90;99.90
21823;DHT22;11074;48.596;9.238;2023-04-25T13:35:44;12.10;99.90
21823;DHT22;11074;48.596;9.238;2023-04-25T13:38:20;12.20;99.90
21823;DHT22;11074;48.596;9.238;2023-04-25T13:40:47;12.30;99.90
21823;DHT22;11074;48.596;9.238;2023-04-25T13:43:12;12.40;99.90
21823;DHT22;11074;48.596;9.238;2023-04-25T13:45:39;12.60;99.90
21823;DHT22;11074;48.596;9.238;2023-04-25T13:48:05;12.60;99.90
21823;DHT22;11074;48.596;9.238;2023-04-25T13:50:30;12.60;99.90
21823;DHT22;11074;48.596;9.238;2023-04-25T13:52:57;12.60;99.90
21823;DHT22;11074;48.596;9.238;2023-04-25T13:55:22;13.10;99.90
21823;DHT22;11074;48.596;9.238;2023-04-25T13:57:48;13.40;99.90
21823;DHT22;11074;48.596;9.238;2023-04-25T14:00:14;13.60;99.90
21823;DHT22;11074;48.596;9.238;2023-04-25T14:02:40;13.40;99.90
21823;DHT22;11074;48.596;9.238;2023-04-25T14:05:06;13.10;99.90
21823;DHT22;11074;48.596;9.238;2023-04-25T14:07:36;12.90;99.90
21823;DHT22;11074;48.596;9.238;2023-04-25T14:10:03;12.60;99.90
21823;DHT22;11074;48.596;9.238;2023-04-25T14:12:30;12.50;99.90
21823;DHT22;11074;48.596;9.238;2023-04-25T14:14:57;12.40;99.90
21823;DHT22;11074;48.596;9.238;2023-04-25T14:17:23;12.40;99.90
21823;DHT22;11074;48.596;9.238;2023-04-25T14:19:49;12.30;99.90
21823;DHT22;11074;48.596;9.238;2023-04-25T14:22:15;12.20;99.90
21823;DHT22;11074;48.596;9.238;2023-04-25T14:24:41;12.20;99.90
21823;DHT22;11074;48.596;9.238;2023-04-25T14:27:07;12.30;99.90
21823;DHT22;11074;48.596;9.238;2023-04-25T14:29:33;12.20;99.90
21823;DHT22;11074;48.596;9.238;2023-04-25T14:31:59;12.10;99.90
21823;DHT22;11074;48.596;9.238;2023-04-25T14:34:25;12.00;99.90
21823;DHT22;11074;48.596;9.238;2023-04-25T14:36:51;11.80;99.90
21823;DHT22;11074;48.596;9.238;2023-04-25T14:39:18;11.90;99.90
21823;DHT22;11074;48.596;9.238;2023-04-25T14:41:44;12.20;99.90
21823;DHT22;11074;48.596;9.238;2023-04-25T14:44:10;12.40;99.90
21823;DHT22;11074;48.596;9.238;2023-04-25T14:46:36;12.50;99.90
21823;DHT22;11074;48.596;9.238;2023-04-25T14:49:02;12.50;99.90
21823;DHT22;11074;48.596;9.238;2023-04-25T14:51:29;12.40;99.90
21823;DHT22;11074;48.596;9.238;2023-04-25T14:53:56;12.30;99.90
21823;DHT22;11074;48.596;9.238;2023-04-25T14:56:22;12.50;99.90
21823;DHT22;11074;48.596;9.238;2023-04-25T14:58:48;12.60;99.90
21823;DHT22;11074;48.596;9.238;2023-04-25T15:01:14;12.70;99.90
21823;DHT22;11074;48.596;9.238;2023-04-25T15:03:40;12.70;99.90
21823;DHT22;11074;48.596;9.238;2023-04-25T15:06:06;12.90;99.90
21823;DHT22;11074;48.596;9.238;2023-04-25T15:08:33;13.30;99.90
21823;DHT22;11074;48.596;9.238;2023-04-25T15:10:59;13.70;99.90
21823;DHT22;11074;48.596;9.238;2023-04-25T15:13:25;14.40;99.90
21823;DHT22;11074;48.596;9.238;2023-04-25T15:15:51;15.40;99.90
21823;DHT22;11074;48.596;9.238;2023-04-25T15:18:20;17.00;99.90
21823;DHT22;11074;48.596;9.238;2023-04-25T15:20:50;18.00;99.90
21823;DHT22;11074;48.596;9.238;2023-04-25T15:23:17;19.20;99.90
21823;DHT22;11074;48.596;9.238;2023-04-25T15:25:44;20.40;99.90
21823;DHT22;11074;48.596;9.238;2023-04-25T15:28:10;19.40;99.90
21823;DHT22;11074;48.596;9.238;2023-04-25T15:30:36;17.80;99.90
21823;DHT22;11074;48.596;9.238;2023-04-25T15:33:02;16.50;99.90
21823;DHT22;11074;48.596;9.238;2023-04-25T15:35:28;15.50;99.90
21823;DHT22;11074;48.596;9.238;2023-04-25T15:37:54;14.80;99.90
21823;DHT22;11074;48.596;9.238;2023-04-25T15:40:19;14.40;99.90
21823;DHT22;11074;48.596;9.238;2023-04-25T15:42:47;14.00;99.90
21823;DHT22;11074;48.596;9.238;2023-04-25T15:45:19;13.80;99.90
21823;DHT22;11074;48.596;9.238;2023-04-25T15:47:50;13.50;99.90